createdAt,value
2023-04-09T00:00:27.582Z,62.57
2023-04-09T00:02:55.647Z,62.80
2023-04-09T00:05:23.044Z,61.61
2023-04-09T00:07:50.496Z,62.63
2023-04-09T00:10:18.098Z,62.34
2023-04-09T00:12:45.524Z,61.98
2023-04-09T00:15:20.641Z,62.20
2023-04-09T00:17:56.305Z,61.12
2023-04-09T00:20:23.740Z,62.08
2023-04-09T00:22:51.853Z,61.80
2023-04-09T00:25:20.056Z,61.03
2023-04-09T00:27:47.554Z,61.65
2023-04-09T00:30:14.973Z,61.20
2023-04-09T00:32:42.610Z,61.75
2023-04-09T00:35:10.367Z,61.64
2023-04-09T00:37:37.762Z,61.87
2023-04-09T00:40:06.170Z,62.79
2023-04-09T00:42:34.041Z,61.35
2023-04-09T00:45:01.609Z,61.80
2023-04-09T00:47:29.581Z,62.61
2023-04-09T00:49:57.059Z,62.39
2023-04-09T00:52:24.704Z,62.49
2023-04-09T00:54:52.776Z,62.26
2023-04-09T00:57:20.353Z,63.50
2023-04-09T00:59:47.712Z,64.47
2023-04-09T01:02:15.668Z,65.45
2023-04-09T01:04:43.649Z,64.16
2023-04-09T01:07:19.972Z,63.09
2023-04-09T01:09:56.532Z,62.06
2023-04-09T01:12:33.525Z,62.38
2023-04-09T01:15:11.421Z,62.02
2023-04-09T01:17:46.790Z,62.35
2023-04-09T01:20:23.444Z,61.73
2023-04-09T01:23:15.791Z,62.47
2023-04-09T01:26:10.369Z,62.28
2023-04-09T01:28:49.410Z,64.90
2023-04-09T01:31:21.069Z,67.03
2023-04-09T01:33:48.449Z,66.05
2023-04-09T01:36:15.923Z,66.63
2023-04-09T01:38:43.657Z,66.49
2023-04-09T01:41:14.429Z,65.95
2023-04-09T01:43:41.886Z,65.12
2023-04-09T01:46:09.566Z,65.23
2023-04-09T01:48:37.006Z,64.48
2023-04-09T01:51:04.629Z,63.79
2023-04-09T01:53:32.293Z,64.53
2023-04-09T01:56:00.345Z,64.56
2023-04-09T01:58:27.856Z,64.77
2023-04-09T02:00:59.234Z,63.22
2023-04-09T02:03:34.397Z,63.33
2023-04-09T02:06:14.618Z,63.86
2023-04-09T02:08:47.012Z,62.82
2023-04-09T02:11:15.004Z,62.73
2023-04-09T02:13:42.644Z,63.45
2023-04-09T02:16:11.450Z,62.72
2023-04-09T02:18:39.083Z,63.65
2023-04-09T02:21:06.950Z,63.34
2023-04-09T02:23:35.079Z,64.15
2023-04-09T02:26:02.635Z,63.26
2023-04-09T02:28:30.277Z,63.22
2023-04-09T02:30:58.003Z,62.49
2023-04-09T02:33:25.446Z,62.74
2023-04-09T02:35:52.839Z,62.94
2023-04-09T02:38:20.580Z,62.36
2023-04-09T02:40:47.941Z,63.24
2023-04-09T02:43:15.357Z,63.03
2023-04-09T02:45:42.998Z,63.93
2023-04-09T02:48:10.385Z,63.74
2023-04-09T02:50:37.738Z,63.73
2023-04-09T02:53:05.400Z,62.97
2023-04-09T02:55:32.784Z,62.33
2023-04-09T02:58:00.510Z,62.70
2023-04-09T03:00:28.205Z,63.71
2023-04-09T03:02:56.312Z,62.61
2023-04-09T03:05:23.938Z,63.04
2023-04-09T03:07:51.643Z,62.96
2023-04-09T03:10:19.018Z,61.99
2023-04-09T03:12:47.860Z,62.20
2023-04-09T03:15:15.512Z,63.51
2023-04-09T03:17:42.884Z,62.84
2023-04-09T03:20:10.430Z,63.20
2023-04-09T03:22:38.940Z,63.05
2023-04-09T03:25:07.409Z,63.35
2023-04-09T03:27:35.083Z,62.98
2023-04-09T03:30:03.358Z,62.87
2023-04-09T03:32:31.783Z,63.97
2023-04-09T03:34:59.169Z,63.91
2023-04-09T03:37:26.995Z,64.11
2023-04-09T03:39:54.904Z,63.94
2023-04-09T03:42:22.714Z,64.07
2023-04-09T03:44:50.381Z,64.49
2023-04-09T03:47:17.970Z,64.33
2023-04-09T03:49:45.363Z,63.78
2023-04-09T03:52:13.593Z,64.26
2023-04-09T03:54:43.424Z,64.64
2023-04-09T03:57:11.960Z,64.64
2023-04-09T03:59:40.281Z,64.14
2023-04-09T04:02:07.834Z,64.62
2023-04-09T04:04:38.732Z,64.74
2023-04-09T04:07:08.736Z,64.53
2023-04-09T04:09:37.408Z,64.80
2023-04-09T04:12:05.335Z,65.18
2023-04-09T04:14:34.145Z,64.76
2023-04-09T04:17:02.355Z,64.49
2023-04-09T04:19:30.385Z,64.15
2023-04-09T04:21:57.962Z,64.46
2023-04-09T04:24:25.753Z,64.44
2023-04-09T04:26:53.127Z,64.17
2023-04-09T04:29:20.596Z,64.02
2023-04-09T04:31:48.733Z,63.56
2023-04-09T04:34:16.738Z,62.87
2023-04-09T04:36:45.297Z,62.93
2023-04-09T04:39:13.020Z,63.61
2023-04-09T04:41:41.506Z,62.78
2023-04-09T04:44:09.124Z,62.43
2023-04-09T04:46:37.459Z,63.66
2023-04-09T04:49:05.375Z,63.36
2023-04-09T04:51:33.694Z,62.54
2023-04-09T04:54:01.642Z,61.80
2023-04-09T04:56:29.365Z,62.55
2023-04-09T04:58:57.646Z,62.78
2023-04-09T05:01:25.434Z,62.53
2023-04-09T05:03:53.612Z,63.91
2023-04-09T05:06:22.964Z,63.08
2023-04-09T05:08:51.010Z,61.97
2023-04-09T05:11:18.598Z,61.82
2023-04-09T05:13:46.847Z,61.23
2023-04-09T05:16:18.690Z,61.92
2023-04-09T05:18:47.155Z,62.51
2023-04-09T05:21:14.833Z,61.08
2023-04-09T05:23:42.779Z,61.22
2023-04-09T05:26:10.682Z,61.27
2023-04-09T05:28:38.737Z,60.92
2023-04-09T05:31:12.855Z,61.40
2023-04-09T05:33:42.375Z,61.00
2023-04-09T05:36:17.387Z,60.18
2023-04-09T05:38:46.413Z,60.13
2023-04-09T05:41:14.040Z,59.49
2023-04-09T05:43:45.728Z,60.63
2023-04-09T05:46:13.546Z,61.91
2023-04-09T05:48:41.526Z,60.56
2023-04-09T05:51:09.976Z,60.28
2023-04-09T05:53:37.819Z,60.33
2023-04-09T05:56:13.502Z,60.61
2023-04-09T05:58:41.890Z,60.88
2023-04-09T06:01:10.222Z,59.54
2023-04-09T06:03:38.084Z,59.67
2023-04-09T06:06:05.672Z,60.17
2023-04-09T06:08:34.606Z,59.56
2023-04-09T06:11:02.229Z,60.14
2023-04-09T06:13:29.662Z,59.88
2023-04-09T06:15:57.109Z,58.81
2023-04-09T06:18:24.751Z,60.09
2023-04-09T06:21:01.718Z,60.59
2023-04-09T06:23:29.415Z,60.07
2023-04-09T06:25:56.793Z,61.17
2023-04-09T06:28:24.288Z,62.15
2023-04-09T06:30:53.581Z,63.19
2023-04-09T06:33:21.599Z,62.22
2023-04-09T06:35:49.237Z,61.28
2023-04-09T06:38:17.102Z,60.68
2023-04-09T06:40:44.584Z,60.15
2023-04-09T06:43:11.958Z,61.54
2023-04-09T06:45:41.145Z,61.80
2023-04-09T06:48:08.641Z,62.53
2023-04-09T06:50:36.088Z,62.40
2023-04-09T06:53:03.720Z,62.79
2023-04-09T06:55:31.047Z,60.47
2023-04-09T06:57:58.411Z,60.02
2023-04-09T07:00:26.157Z,58.90
2023-04-09T07:02:53.792Z,59.90
2023-04-09T07:05:21.558Z,61.56
2023-04-09T07:07:49.165Z,60.16
2023-04-09T07:10:16.558Z,60.29
2023-04-09T07:12:43.911Z,59.98
2023-04-09T07:15:11.559Z,58.98
2023-04-09T07:17:38.955Z,57.73
2023-04-09T07:20:06.604Z,57.66
2023-04-09T07:22:34.261Z,57.44
2023-04-09T07:25:01.781Z,57.83
2023-04-09T07:27:29.232Z,57.32
2023-04-09T07:29:57.903Z,56.30
2023-04-09T07:32:26.255Z,56.39
2023-04-09T07:34:54.134Z,55.88
2023-04-09T07:37:21.850Z,55.12
2023-04-09T07:39:49.656Z,54.53
2023-04-09T07:42:17.102Z,53.22
2023-04-09T07:44:44.733Z,53.38
2023-04-09T07:47:12.978Z,51.55
2023-04-09T07:49:40.358Z,51.31
2023-04-09T07:52:08.187Z,51.42
2023-04-09T07:54:35.774Z,52.41
2023-04-09T07:57:03.186Z,50.32
2023-04-09T07:59:31.730Z,50.99
2023-04-09T08:01:59.512Z,49.00
2023-04-09T08:04:27.428Z,49.00
2023-04-09T08:06:54.894Z,49.37
2023-04-09T08:09:22.275Z,48.57
2023-04-09T08:11:50.394Z,48.28
2023-04-09T08:14:17.883Z,46.84
2023-04-09T08:16:49.944Z,47.28
2023-04-09T08:19:18.022Z,47.02
2023-04-09T08:21:46.198Z,47.36
2023-04-09T08:24:13.664Z,47.07
2023-04-09T08:26:41.759Z,45.83
2023-04-09T08:29:10.998Z,44.22
2023-04-09T08:31:38.559Z,45.85
2023-04-09T08:34:06.222Z,47.73
2023-04-09T08:36:35.034Z,46.17
2023-04-09T08:39:02.929Z,47.11
2023-04-09T08:41:30.858Z,45.63
2023-04-09T08:43:59.549Z,48.95
2023-04-09T08:46:27.743Z,47.40
2023-04-09T08:48:56.242Z,47.78
2023-04-09T08:51:24.099Z,46.01
2023-04-09T08:54:03.997Z,45.40
2023-04-09T08:56:32.618Z,44.88
2023-04-09T08:59:00.001Z,49.37
2023-04-09T09:01:28.614Z,46.99
2023-04-09T09:03:57.364Z,45.89
2023-04-09T09:06:26.171Z,44.25
2023-04-09T09:09:12.783Z,43.43
2023-04-09T09:11:44.769Z,45.44
2023-04-09T09:14:13.333Z,45.96
2023-04-09T09:16:44.800Z,45.02
2023-04-09T09:19:24.290Z,45.88
2023-04-09T09:21:58.643Z,45.02
2023-04-09T09:24:26.060Z,45.02
2023-04-09T09:26:59.800Z,44.60
2023-04-09T09:29:28.264Z,43.58
2023-04-09T09:31:56.298Z,43.80
2023-04-09T09:34:24.453Z,43.25
2023-04-09T09:36:51.835Z,42.52
2023-04-09T09:39:19.582Z,43.23
2023-04-09T09:41:48.777Z,41.32
2023-04-09T09:44:32.619Z,42.88
2023-04-09T09:47:00.648Z,44.47
2023-04-09T09:49:28.038Z,46.63
2023-04-09T09:51:57.675Z,46.01
2023-04-09T09:54:25.679Z,45.39
2023-04-09T09:56:53.106Z,44.70
2023-04-09T09:59:23.853Z,44.44
2023-04-09T10:01:54.947Z,43.96
2023-04-09T10:04:22.765Z,45.37
2023-04-09T10:06:52.106Z,43.70
2023-04-09T10:09:20.706Z,49.06
2023-04-09T10:11:48.811Z,50.71
2023-04-09T10:14:16.778Z,48.77
2023-04-09T10:16:44.173Z,48.26
2023-04-09T10:19:14.232Z,46.75
2023-04-09T10:21:42.887Z,46.64
2023-04-09T10:24:10.480Z,46.78
2023-04-09T10:26:41.079Z,45.06
2023-04-09T10:29:10.016Z,44.50
2023-04-09T10:32:08.450Z,45.65
2023-04-09T10:34:42.913Z,46.01
2023-04-09T10:37:24.332Z,44.61
2023-04-09T10:39:52.540Z,44.36
2023-04-09T10:42:27.432Z,44.46
2023-04-09T10:45:05.138Z,44.49
2023-04-09T10:47:36.647Z,45.59
2023-04-09T10:50:20.347Z,46.32
2023-04-09T10:52:51.692Z,45.49
2023-04-09T10:55:41.930Z,46.28
2023-04-09T10:58:13.474Z,44.68
2023-04-09T11:00:45.159Z,43.77
2023-04-09T11:03:30.491Z,44.95
2023-04-09T11:06:09.432Z,46.03
2023-04-09T11:08:38.412Z,46.64
2023-04-09T11:11:05.990Z,47.18
2023-04-09T11:13:34.161Z,48.91
2023-04-09T11:16:04.247Z,50.03
2023-04-09T11:18:33.864Z,49.74
2023-04-09T11:21:02.221Z,47.32
2023-04-09T11:23:29.895Z,45.61
2023-04-09T11:25:57.299Z,45.34
2023-04-09T11:28:24.658Z,43.82
2023-04-09T11:30:52.385Z,41.98
2023-04-09T11:33:20.483Z,41.71
2023-04-09T11:35:48.541Z,43.15
2023-04-09T11:38:16.371Z,40.50
2023-04-09T11:40:51.446Z,40.57
2023-04-09T11:43:20.999Z,40.13
2023-04-09T11:45:48.918Z,43.48
2023-04-09T11:48:18.519Z,44.91
2023-04-09T11:50:46.814Z,42.50
2023-04-09T11:53:20.751Z,42.85
2023-04-09T11:55:52.230Z,43.14
2023-04-09T11:58:23.518Z,41.17
2023-04-09T12:01:09.298Z,46.09
2023-04-09T12:03:37.811Z,44.72
2023-04-09T12:06:06.135Z,42.97
2023-04-09T12:08:37.273Z,45.10
2023-04-09T12:11:11.874Z,42.58
2023-04-09T12:13:43.251Z,41.02
2023-04-09T12:16:14.367Z,41.50
2023-04-09T12:18:41.929Z,41.26
2023-04-09T12:21:09.308Z,39.89
2023-04-09T12:23:36.966Z,41.20
2023-04-09T12:26:04.411Z,41.38
2023-04-09T12:28:31.858Z,43.07
2023-04-09T12:30:59.653Z,42.08
2023-04-09T12:33:27.292Z,42.09
2023-04-09T12:35:54.673Z,41.87
2023-04-09T12:38:22.354Z,41.36
2023-04-09T12:40:49.692Z,44.84
2023-04-09T12:43:17.089Z,46.82
2023-04-09T12:45:44.849Z,45.24
2023-04-09T12:48:12.480Z,46.87
2023-04-09T12:50:39.976Z,45.76
2023-04-09T12:53:08.870Z,46.12
2023-04-09T12:55:36.210Z,45.72
2023-04-09T12:58:03.571Z,44.84
2023-04-09T13:00:31.353Z,44.83
2023-04-09T13:02:58.963Z,46.46
2023-04-09T13:05:26.555Z,44.24
2023-04-09T13:07:54.147Z,44.43
2023-04-09T13:10:21.522Z,42.88
2023-04-09T13:12:48.887Z,42.75
2023-04-09T13:15:16.521Z,42.51
2023-04-09T13:17:43.905Z,42.84
2023-04-09T13:20:11.527Z,43.91
2023-04-09T13:22:39.313Z,46.76
2023-04-09T13:25:06.802Z,45.80
2023-04-09T13:27:34.163Z,44.88
2023-04-09T13:30:01.824Z,44.36
2023-04-09T13:32:29.308Z,47.40
2023-04-09T13:34:58.004Z,46.31
2023-04-09T13:37:26.099Z,45.97
2023-04-09T13:39:53.418Z,45.38
2023-04-09T13:42:20.895Z,45.38
2023-04-09T13:44:48.529Z,47.68
2023-04-09T13:47:16.833Z,47.69
2023-04-09T13:49:44.184Z,45.60
2023-04-09T13:52:11.927Z,45.95
2023-04-09T13:54:39.319Z,47.75
2023-04-09T13:57:06.906Z,46.48
2023-04-09T13:59:34.610Z,46.86
2023-04-09T14:02:02.179Z,49.90
2023-04-09T14:04:30.417Z,46.05
2023-04-09T14:06:57.886Z,50.07
2023-04-09T14:09:25.236Z,50.26
2023-04-09T14:11:54.779Z,50.44
2023-04-09T14:14:22.111Z,47.92
2023-04-09T14:16:50.391Z,47.88
2023-04-09T14:19:18.108Z,48.20
2023-04-09T14:21:45.474Z,48.04
2023-04-09T14:24:12.834Z,46.28
2023-04-09T14:26:40.856Z,45.67
2023-04-09T14:29:08.239Z,45.03
2023-04-09T14:31:35.787Z,45.37
2023-04-09T14:34:03.424Z,45.47
2023-04-09T14:36:32.226Z,46.29
2023-04-09T14:39:00.211Z,44.75
2023-04-09T14:41:28.180Z,44.59
2023-04-09T14:43:55.715Z,44.68
2023-04-09T14:46:23.062Z,42.29
2023-04-09T14:48:50.918Z,42.94
2023-04-09T14:51:18.482Z,43.21
2023-04-09T14:53:45.855Z,43.59
2023-04-09T14:56:13.529Z,44.66
2023-04-09T14:58:40.994Z,47.63
2023-04-09T15:01:08.443Z,44.90
2023-04-09T15:03:36.340Z,44.08
2023-04-09T15:06:04.184Z,45.33
2023-04-09T15:08:31.506Z,44.51
2023-04-09T15:10:59.167Z,46.13
2023-04-09T15:13:26.550Z,46.66
2023-04-09T15:15:54.051Z,47.58
2023-04-09T15:18:21.926Z,47.89
2023-04-09T15:20:49.373Z,47.75
2023-04-09T15:23:16.748Z,45.18
2023-04-09T15:25:44.368Z,43.86
2023-04-09T15:28:11.739Z,43.86
2023-04-09T15:30:39.210Z,44.23
2023-04-09T15:33:06.913Z,43.80
2023-04-09T15:35:34.824Z,44.14
2023-04-09T15:38:02.205Z,44.46
2023-04-09T15:40:31.102Z,45.02
2023-04-09T15:42:58.459Z,47.50
2023-04-09T15:45:26.492Z,47.40
2023-04-09T15:47:54.270Z,45.45
2023-04-09T15:50:21.755Z,45.12
2023-04-09T15:52:49.117Z,46.54
2023-04-09T15:55:16.870Z,47.59
2023-04-09T15:57:46.829Z,48.13
2023-04-09T16:00:15.349Z,48.10
2023-04-09T16:02:43.032Z,47.29
2023-04-09T16:05:10.472Z,48.60
2023-04-09T16:07:39.375Z,48.14
2023-04-09T16:10:07.356Z,47.47
2023-04-09T16:12:34.709Z,48.43
2023-04-09T16:15:02.495Z,44.69
2023-04-09T16:17:30.922Z,47.62
2023-04-09T16:19:58.421Z,49.27
2023-04-09T16:22:25.998Z,47.58
2023-04-09T16:24:53.624Z,51.08
2023-04-09T16:27:21.192Z,50.24
2023-04-09T16:29:48.524Z,50.97
2023-04-09T16:32:16.705Z,50.18
2023-04-09T16:34:44.054Z,49.91
2023-04-09T16:37:11.464Z,50.08
2023-04-09T16:39:39.145Z,49.98
2023-04-09T16:42:07.080Z,51.22
2023-04-09T16:44:34.475Z,50.89
2023-04-09T16:47:02.713Z,50.39
2023-04-09T16:49:31.402Z,51.65
2023-04-09T16:51:58.808Z,52.30
2023-04-09T16:54:26.464Z,51.90
2023-04-09T16:56:53.839Z,53.18
2023-04-09T16:59:21.434Z,52.54
2023-04-09T17:01:49.282Z,52.59
2023-04-09T17:04:17.142Z,52.84
2023-04-09T17:06:44.586Z,52.78
2023-04-09T17:09:12.226Z,54.17
2023-04-09T17:11:39.600Z,52.35
2023-04-09T17:14:06.995Z,53.56
2023-04-09T17:16:34.695Z,52.37
2023-04-09T17:19:02.100Z,52.89
2023-04-09T17:21:29.478Z,53.24
2023-04-09T17:23:57.116Z,53.24
2023-04-09T17:26:24.720Z,52.51
2023-04-09T17:28:52.683Z,51.31
2023-04-09T17:31:24.077Z,52.23
2023-04-09T17:33:51.744Z,53.22
2023-04-09T17:36:19.980Z,53.51
2023-04-09T17:38:48.510Z,54.20
2023-04-09T17:41:16.033Z,54.50
2023-04-09T17:43:43.424Z,54.68
2023-04-09T17:46:11.763Z,54.64
2023-04-09T17:48:39.329Z,54.87
2023-04-09T17:51:07.039Z,55.77
2023-04-09T17:53:34.677Z,56.35
2023-04-09T17:56:04.022Z,56.22
2023-04-09T17:58:31.825Z,55.09
2023-04-09T18:00:59.640Z,54.90
2023-04-09T18:03:27.595Z,54.11
2023-04-09T18:05:55.325Z,54.68
2023-04-09T18:08:22.685Z,52.98
2023-04-09T18:11:04.922Z,52.38
2023-04-09T18:13:38.702Z,52.97
2023-04-09T18:16:12.664Z,52.29
2023-04-09T18:18:40.356Z,52.70
2023-04-09T18:21:08.023Z,52.38
2023-04-09T18:23:35.478Z,53.30
2023-04-09T18:26:02.988Z,52.78
2023-04-09T18:28:30.639Z,52.57
2023-04-09T18:30:58.876Z,52.69
2023-04-09T18:33:27.074Z,52.95
2023-04-09T18:35:54.811Z,53.25
2023-04-09T18:38:22.651Z,53.40
2023-04-09T18:40:50.032Z,54.11
2023-04-09T18:43:17.719Z,53.50
2023-04-09T18:45:45.079Z,53.62
2023-04-09T18:48:12.528Z,53.84
2023-04-09T18:50:40.283Z,53.45
2023-04-09T18:53:07.665Z,53.57
2023-04-09T18:55:38.139Z,53.85
2023-04-09T18:58:08.774Z,54.10
2023-04-09T19:00:36.552Z,54.20
2023-04-09T19:03:04.698Z,54.36
2023-04-09T19:05:32.884Z,54.53
2023-04-09T19:08:04.292Z,56.76
2023-04-09T19:10:32.907Z,56.39
2023-04-09T19:13:00.274Z,55.95
2023-04-09T19:15:28.497Z,55.87
2023-04-09T19:17:56.576Z,55.93
2023-04-09T19:20:24.042Z,55.77
2023-04-09T19:22:54.336Z,55.83
2023-04-09T19:25:22.854Z,55.50
2023-04-09T19:27:50.366Z,55.69
2023-04-09T19:30:17.882Z,55.76
2023-04-09T19:32:45.654Z,57.22
2023-04-09T19:35:13.062Z,56.18
2023-04-09T19:37:40.800Z,56.38
2023-04-09T19:40:08.986Z,57.34
2023-04-09T19:42:36.330Z,57.44
2023-04-09T19:45:03.769Z,56.83
2023-04-09T19:47:31.755Z,56.42
2023-04-09T19:49:59.102Z,57.30
2023-04-09T19:52:27.011Z,56.78
2023-04-09T19:54:55.803Z,56.93
2023-04-09T19:57:23.191Z,57.57
2023-04-09T19:59:52.170Z,57.35
2023-04-09T20:02:19.932Z,58.11
2023-04-09T20:04:47.635Z,57.87
2023-04-09T20:07:15.689Z,58.54
2023-04-09T20:09:43.571Z,57.97
2023-04-09T20:12:11.237Z,57.71
2023-04-09T20:14:39.383Z,58.25
2023-04-09T20:17:08.851Z,58.76
2023-04-09T20:19:37.862Z,58.51
2023-04-09T20:22:05.362Z,58.93
2023-04-09T20:24:33.826Z,58.86
2023-04-09T20:27:01.736Z,58.59
2023-04-09T20:29:29.315Z,58.63
2023-04-09T20:31:56.858Z,58.46
2023-04-09T20:34:26.918Z,58.62
2023-04-09T20:36:54.656Z,58.73
2023-04-09T20:39:22.380Z,58.78
2023-04-09T20:41:50.019Z,58.72
2023-04-09T20:44:17.349Z,58.50
2023-04-09T20:46:44.738Z,59.77
2023-04-09T20:49:13.103Z,60.53
2023-04-09T20:51:40.586Z,60.38
2023-04-09T20:54:07.943Z,59.22
2023-04-09T20:56:35.861Z,59.12
2023-04-09T20:59:03.484Z,59.21
2023-04-09T21:01:32.313Z,58.91
2023-04-09T21:04:00.134Z,59.85
2023-04-09T21:06:27.597Z,59.39
2023-04-09T21:08:55.956Z,59.56
2023-04-09T21:11:24.266Z,59.55
2023-04-09T21:13:54.978Z,59.36
2023-04-09T21:16:23.039Z,59.57
2023-04-09T21:18:50.933Z,59.76
2023-04-09T21:21:18.597Z,60.95
2023-04-09T21:23:45.952Z,59.66
2023-04-09T21:26:15.027Z,60.31
2023-04-09T21:28:42.705Z,59.58
2023-04-09T21:31:11.232Z,59.83
2023-04-09T21:33:39.267Z,60.08
2023-04-09T21:36:08.049Z,60.12
2023-04-09T21:38:35.735Z,59.71
2023-04-09T21:41:03.365Z,60.18
2023-04-09T21:43:30.758Z,60.34
2023-04-09T21:45:58.145Z,59.73
2023-04-09T21:48:26.507Z,59.49
2023-04-09T21:50:53.881Z,60.20
2023-04-09T21:53:21.226Z,59.58
2023-04-09T21:55:48.830Z,59.53
2023-04-09T21:58:16.217Z,59.56
2023-04-09T22:00:43.591Z,60.59
2023-04-09T22:03:11.811Z,61.25
2023-04-09T22:05:39.308Z,60.82
2023-04-09T22:08:07.326Z,60.60
2023-04-09T22:10:34.959Z,60.25
2023-04-09T22:13:02.346Z,60.25
2023-04-09T22:15:29.728Z,60.94
2023-04-09T22:17:57.776Z,61.05
2023-04-09T22:20:26.431Z,60.74
2023-04-09T22:22:54.238Z,60.77
2023-04-09T22:25:22.184Z,60.47
2023-04-09T22:27:53.157Z,61.08
2023-04-09T22:30:24.476Z,60.69
2023-04-09T22:32:52.226Z,60.24
2023-04-09T22:35:19.850Z,60.22
2023-04-09T22:37:47.341Z,60.47
2023-04-09T22:40:15.539Z,60.24
2023-04-09T22:42:43.551Z,60.91
2023-04-09T22:45:11.219Z,60.63
2023-04-09T22:47:39.041Z,60.80
2023-04-09T22:50:07.316Z,60.64
2023-04-09T22:52:34.663Z,60.73
2023-04-09T22:55:02.259Z,60.36
2023-04-09T22:57:29.926Z,60.86
2023-04-09T22:59:57.663Z,60.22
2023-04-09T23:02:26.158Z,60.33
2023-04-09T23:04:53.715Z,59.71
2023-04-09T23:07:21.077Z,60.05
2023-04-09T23:09:48.700Z,60.53
2023-04-09T23:12:16.099Z,61.77
2023-04-09T23:14:43.426Z,61.25
2023-04-09T23:17:11.028Z,60.65
2023-04-09T23:19:38.427Z,60.75
2023-04-09T23:22:05.803Z,60.42
2023-04-09T23:24:33.459Z,60.66
2023-04-09T23:27:00.924Z,60.29
2023-04-09T23:29:28.276Z,60.17
2023-04-09T23:31:56.103Z,59.59
2023-04-09T23:34:23.544Z,59.88
2023-04-09T23:36:51.614Z,59.76
2023-04-09T23:39:19.231Z,59.56
2023-04-09T23:41:46.567Z,59.97
2023-04-09T23:44:13.904Z,60.17
2023-04-09T23:46:41.693Z,60.04
2023-04-09T23:49:09.169Z,59.93
2023-04-09T23:51:36.487Z,60.16
2023-04-09T23:54:04.125Z,60.47
2023-04-09T23:56:31.599Z,60.12
2023-04-09T23:58:59.055Z,60.15
